Time;durP1;ratioP1;P1;durP2;ratioP2;P2;SDS_P1;SDS_P2;PMS_P1;PMS_P2;Temp;Humidity;BMP_temperature;BMP_pressure;BME280_temperature;BME280_humidity;BME280_pressure;Samples;Min_cycle;Max_cycle;Signal;HPM_P1;HPM_P2
2022/03/05 00:01:09;;;;;;;10.00;5.50;;;;;;;0.47;73.32;101124.01;88345;1274;88923;-78
2022/03/05 00:03:20;;;;;;;9.70;5.40;;;;;;;0.48;73.24;101120.03;88297;1273;95332;-78
2022/03/05 00:05:31;;;;;;;11.80;5.30;;;;;;;0.48;73.17;101119.31;88307;1273;79550;-79
2022/03/05 00:07:41;;;;;;;10.40;5.50;;;;;;;0.54;72.77;101114.98;88332;1273;82400;-78
2022/03/05 00:09:54;;;;;;;10.30;5.90;;;;;;;0.59;72.64;101117.31;88327;1273;98847;-78
2022/03/05 00:12:04;;;;;;;9.40;4.20;;;;;;;0.64;72.44;101116.27;88331;1274;88392;-79
2022/03/05 00:14:15;;;;;;;7.20;3.90;;;;;;;0.65;72.46;101118.13;88326;1273;94879;-79
2022/03/05 00:16:28;;;;;;;8.40;4.50;;;;;;;0.64;72.27;101115.88;88357;1273;78338;-79
2022/03/05 00:18:37;;;;;;;8.70;4.10;;;;;;;0.63;72.05;101115.09;88309;1273;80828;-78
2022/03/05 00:20:47;;;;;;;8.10;4.30;;;;;;;0.59;71.75;101114.62;88190;1276;99359;-78
2022/03/05 00:22:56;;;;;;;9.00;4.80;;;;;;;0.57;71.67;101115.98;88355;1273;87681;-79
2022/03/05 00:25:06;;;;;;;7.30;4.30;;;;;;;0.53;71.52;101116.26;88310;1274;94331;-65
2022/03/05 00:27:19;;;;;;;8.00;4.40;;;;;;;0.49;71.55;101114.60;88254;1273;79112;-63
2022/03/05 00:29:29;;;;;;;8.40;4.60;;;;;;;0.48;71.50;101111.52;88326;1273;81398;-69
2022/03/05 00:31:39;;;;;;;6.50;3.90;;;;;;;0.46;71.62;101111.11;88245;1274;99666;-64
2022/03/05 00:33:48;;;;;;;8.90;4.10;;;;;;;0.44;71.54;101108.95;88292;1273;89042;-64
2022/03/05 00:36:00;;;;;;;7.30;4.10;;;;;;;0.42;71.51;101111.98;88281;1274;91665;-63
2022/03/05 00:38:13;;;;;;;8.20;4.60;;;;;;;0.39;71.34;101111.63;88287;1274;79330;-64
2022/03/05 00:40:23;;;;;;;7.40;4.30;;;;;;;0.35;71.32;101112.58;88217;1273;80629;-63
2022/03/05 00:42:33;;;;;;;9.20;4.30;;;;;;;0.31;71.45;101110.58;88280;1273;99200;-63
2022/03/05 00:44:42;;;;;;;8.20;4.60;;;;;;;0.28;71.34;101112.96;88301;1274;89589;-63
2022/03/05 00:46:53;;;;;;;30.00;15.10;;;;;;;0.26;71.38;101110.48;88223;1273;94409;-63
2022/03/05 00:49:03;;;;;;;21.20;10.70;;;;;;;0.20;71.55;101106.61;88301;1274;78977;-63
2022/03/05 00:51:12;;;;;;;19.20;9.20;;;;;;;0.18;71.41;101106.39;88319;1273;81471;-63
2022/03/05 00:53:22;;;;;;;11.30;5.70;;;;;;;0.19;71.30;101110.25;88269;1271;98715;-63
2022/03/05 00:55:31;;;;;;;10.40;5.60;;;;;;;0.19;71.45;101109.66;88302;1273;88526;-63
2022/03/05 00:57:44;;;;;;;10.10;5.00;;;;;;;0.19;71.47;101103.48;88227;1273;94648;-63
2022/03/05 00:59:53;;;;;;;5.40;3.10;;;;;;;0.25;71.23;101099.90;88305;1274;80369;-79
2022/03/05 01:02:02;;;;;;;5.10;2.30;;;;;;;0.30;70.69;101100.09;88339;1273;80803;-79
2022/03/05 01:04:12;;;;;;;5.30;3.30;;;;;;;0.34;70.26;101099.25;88297;1273;98964;-79
2022/03/05 01:06:22;;;;;;;5.70;3.30;;;;;;;0.37;70.17;101094.23;88281;1273;88093;-64
2022/03/05 01:08:33;;;;;;;5.70;3.30;;;;;;;0.39;70.19;101098.16;88272;1273;96095;-63
2022/03/05 01:10:42;;;;;;;7.50;4.00;;;;;;;0.39;70.08;101102.25;88296;1274;77741;-79
2022/03/05 01:12:51;;;;;;;8.60;4.30;;;;;;;0.36;70.35;101100.52;88338;1274;83424;-80
2022/03/05 01:15:01;;;;;;;6.90;4.10;;;;;;;0.35;70.24;101101.65;88313;1273;97645;-63
2022/03/05 01:17:10;;;;;;;7.40;4.10;;;;;;;0.33;70.11;101105.13;88307;1274;87437;-63
2022/03/05 01:19:22;;;;;;;8.10;4.20;;;;;;;0.29;70.21;101100.14;88189;1273;93397;-62
2022/03/05 01:21:31;;;;;;;9.20;4.20;;;;;;;0.26;70.14;101101.94;88282;1274;79301;-63
2022/03/05 01:23:43;;;;;;;9.40;4.60;;;;;;;0.24;70.15;101102.25;88228;1273;82920;-63
2022/03/05 01:25:52;;;;;;;6.90;4.00;;;;;;;0.21;70.11;101098.21;88315;1274;99168;-63
2022/03/05 01:28:02;;;;;;;8.10;4.60;;;;;;;0.18;70.46;101099.11;88276;1274;87503;-62
2022/03/05 01:30:14;;;;;;;8.20;4.50;;;;;;;0.12;70.33;101096.68;88300;1274;95839;-64
2022/03/05 01:32:23;;;;;;;8.70;4.70;;;;;;;0.06;70.40;101097.70;88289;1274;78673;-63
2022/03/05 01:34:32;;;;;;;9.80;4.90;;;;;;;0.01;70.44;101101.02;88309;1274;80773;-79
2022/03/05 01:36:41;;;;;;;8.40;5.00;;;;;;;-0.02;70.53;101098.95;88293;1273;97243;-80
2022/03/05 01:38:51;;;;;;;10.70;4.80;;;;;;;-0.08;70.42;101097.19;88278;1273;88345;-79
2022/03/05 01:40:59;;;;;;;9.70;5.10;;;;;;;-0.12;70.79;101093.08;88309;1274;94768;-79
2022/03/05 01:43:10;;;;;;;8.80;4.50;;;;;;;-0.11;71.02;101097.96;88268;1274;77919;-79
2022/03/05 01:45:19;;;;;;;9.70;4.70;;;;;;;-0.10;71.01;101099.83;88312;1274;81517;-79
2022/03/05 01:47:29;;;;;;;9.60;5.00;;;;;;;-0.12;71.05;101099.61;88282;1274;99599;-80
2022/03/05 01:49:40;;;;;;;9.50;4.70;;;;;;;-0.12;70.97;101098.92;88320;1274;87318;-79
2022/03/05 01:51:51;;;;;;;8.20;4.90;;;;;;;-0.12;71.00;101102.45;88285;1274;95194;-80
2022/03/05 01:54:00;;;;;;;8.60;4.80;;;;;;;-0.11;71.22;101102.36;88309;1273;80291;-80
2022/03/05 01:56:13;;;;;;;10.60;5.20;;;;;;;-0.05;71.20;101106.02;88301;1274;80892;-80
2022/03/05 01:58:23;;;;;;;10.90;5.10;;;;;;;-0.04;71.40;101104.90;88291;1274;97715;-80
2022/03/05 02:00:32;;;;;;;10.80;5.80;;;;;;;-0.02;71.25;101106.70;88333;1274;87648;-80
2022/03/05 02:02:41;;;;;;;10.70;6.10;;;;;;;-0.02;71.22;101104.41;88276;1274;95175;-80
2022/03/05 02:04:53;;;;;;;10.10;6.50;;;;;;;-0.02;71.52;101104.20;88301;1274;78183;-62
2022/03/05 02:07:03;;;;;;;16.20;7.00;;;;;;;-0.04;71.52;101106.46;88302;1274;80743;-62
2022/03/05 02:09:12;;;;;;;15.60;7.30;;;;;;;-0.04;71.42;101103.98;88293;1272;96764;-62
2022/03/05 02:11:25;;;;;;;13.40;7.30;;;;;;;-0.02;71.50;101106.34;88342;1274;88077;-62
2022/03/05 02:13:36;;;;;;;13.70;6.70;;;;;;;-0.03;71.51;101107.47;88275;1274;95915;-63
2022/03/05 02:15:44;;;;;;;14.20;8.00;;;;;;;-0.05;71.53;101107.41;88279;1274;78167;-63
2022/03/05 02:17:54;;;;;;;13.90;6.90;;;;;;;-0.04;71.31;101105.62;88291;1274;82063;-63
2022/03/05 02:20:04;;;;;;;14.50;6.60;;;;;;;-0.08;71.42;101102.84;88298;1274;98212;-63
2022/03/05 02:22:13;;;;;;;14.80;7.70;;;;;;;-0.10;71.33;101103.55;88293;1274;89448;-63
2022/03/05 02:24:32;;;;;;;15.50;9.00;;;;;;;-0.12;71.26;101101.57;88273;1274;95112;-63
2022/03/05 02:26:41;;;;;;;16.40;8.00;;;;;;;-0.15;71.08;101101.98;88268;1274;79538;-79
2022/03/05 02:28:50;;;;;;;13.00;7.10;;;;;;;-0.18;71.33;101097.54;88222;1273;80567;-80
2022/03/05 02:31:00;;;;;;;22.00;10.20;;;;;;;-0.19;71.57;101097.41;88304;1274;98654;-63
2022/03/05 02:33:09;;;;;;;15.50;8.20;;;;;;;-0.20;71.26;101095.19;88282;1274;88801;-63
2022/03/05 02:35:18;;;;;;;14.00;6.80;;;;;;;-0.19;71.60;101096.70;88295;1273;94168;-80
2022/03/05 02:37:27;;;;;;;18.00;8.60;;;;;;;-0.17;71.57;101095.88;88293;1274;80252;-80
2022/03/05 02:39:36;;;;;;;23.00;12.20;;;;;;;-0.12;71.67;101095.71;88329;1274;80122;-64
2022/03/05 02:41:45;;;;;;;78.80;26.30;;;;;;;-0.05;71.51;101098.23;88275;1274;99131;-63
2022/03/05 02:43:55;;;;;;;62.40;21.60;;;;;;;0.01;71.68;101098.02;88215;1274;88883;-63
2022/03/05 02:46:04;;;;;;;64.00;23.80;;;;;;;0.01;71.47;101097.48;88209;1274;96216;-63
2022/03/05 02:48:17;;;;;;;70.70;26.20;;;;;;;-0.01;71.60;101098.64;88285;1274;77609;-63
2022/03/05 02:50:27;;;;;;;82.60;27.20;;;;;;;-0.01;71.67;101100.75;88308;1273;82953;-78
2022/03/05 02:52:39;;;;;;;39.70;17.30;;;;;;;-0.01;71.56;101098.69;88282;1274;99038;-78
2022/03/05 02:54:51;;;;;;;24.60;11.70;;;;;;;-0.03;71.55;101100.39;88283;1274;89577;-78
2022/03/05 02:57:00;;;;;;;19.40;10.20;;;;;;;-0.06;71.48;101100.09;88294;1274;95051;-79
2022/03/05 02:59:13;;;;;;;14.20;8.10;;;;;;;-0.11;71.41;101094.73;88248;1274;77050;-78
2022/03/05 03:01:23;;;;;;;12.30;6.60;;;;;;;-0.11;71.45;101094.05;88311;1273;81394;-61
2022/03/05 03:03:34;;;;;;;9.60;5.70;;;;;;;-0.17;71.34;101103.81;88263;1274;97266;-65
2022/03/05 03:05:43;;;;;;;16.30;8.10;;;;;;;-0.17;71.42;101104.90;88285;1273;87393;-79
2022/03/05 03:07:54;;;;;;;16.90;8.80;;;;;;;-0.20;71.32;101109.86;88266;1274;95384;-80
2022/03/05 03:10:09;;;;;;;27.00;11.40;;;;;;;-0.22;71.48;101112.52;88299;1274;78965;-78
2022/03/05 03:12:19;;;;;;;25.80;11.00;;;;;;;-0.24;71.41;101114.05;88301;1274;82512;-78
2022/03/05 03:14:31;;;;;;;41.40;16.20;;;;;;;-0.26;71.21;101108.75;88281;1274;98029;-73
2022/03/05 03:16:41;;;;;;;63.10;21.50;;;;;;;-0.28;71.42;101107.45;88292;1273;87949;-64
2022/03/05 03:18:52;;;;;;;54.90;20.30;;;;;;;-0.30;71.27;101108.44;88280;1274;92305;-64
2022/03/05 03:21:02;;;;;;;31.60;14.80;;;;;;;-0.30;71.33;101108.07;88286;1274;79372;-79
2022/03/05 03:23:12;;;;;;;28.90;13.40;;;;;;;-0.28;71.23;101105.17;88273;1274;80918;-78
2022/03/05 03:25:25;;;;;;;17.30;8.60;;;;;;;-0.27;71.33;101107.90;88260;1274;98089;-65
2022/03/05 03:27:34;;;;;;;10.70;5.10;;;;;;;-0.20;71.45;101104.25;88268;1274;88897;-63
2022/03/05 03:29:47;;;;;;;8.00;5.00;;;;;;;-0.15;71.39;101102.31;88340;1274;95240;-63
2022/03/05 03:31:57;;;;;;;10.70;5.60;;;;;;;-0.11;71.42;101103.30;88278;1274;77159;-65
2022/03/05 03:34:06;;;;;;;9.80;4.90;;;;;;;-0.10;71.40;101100.39;88282;1274;82623;-64
2022/03/05 03:36:15;;;;;;;8.10;4.40;;;;;;;-0.10;71.29;101102.45;88287;1274;99164;-78
2022/03/05 03:38:28;;;;;;;8.00;4.70;;;;;;;-0.07;71.17;101105.13;88041;1274;360263;-78
2022/03/05 03:40:37;;;;;;;8.40;5.10;;;;;;;-0.07;71.31;101109.69;88279;1274;95548;-64
2022/03/05 03:42:51;;;;;;;7.40;4.60;;;;;;;-0.07;71.15;101107.57;88294;1274;77830;-64
2022/03/05 03:45:02;;;;;;;7.40;4.60;;;;;;;-0.07;71.04;101107.57;88292;1274;81665;-79
2022/03/05 03:47:11;;;;;;;6.90;4.20;;;;;;;-0.09;71.03;101107.55;88344;1274;100045;-78
2022/03/05 03:49:21;;;;;;;8.20;4.50;;;;;;;-0.10;70.99;101106.58;88295;1274;89410;-78
2022/03/05 03:51:33;;;;;;;7.30;3.90;;;;;;;-0.12;70.88;101109.73;88328;1274;96087;-78
2022/03/05 03:53:43;;;;;;;6.70;4.00;;;;;;;-0.14;70.77;101112.34;88286;1274;80407;-77
2022/03/05 03:55:55;;;;;;;6.10;3.90;;;;;;;-0.17;70.88;101120.47;88304;1274;79455;-62
2022/03/05 03:58:05;;;;;;;7.80;3.80;;;;;;;-0.20;70.79;101116.95;88283;1274;98321;-63
2022/03/05 04:00:23;;;;;;;6.60;3.90;;;;;;;-0.21;70.87;101120.42;88467;1274;87411;-77
2022/03/05 04:02:32;;;;;;;6.60;3.50;;;;;;;-0.23;70.70;101121.05;88757;1274;94874;-77
2022/03/05 04:04:42;;;;;;;5.60;3.30;;;;;;;-0.24;70.59;101118.84;88598;1273;78160;-77
2022/03/05 04:09:19;;;;;;;6.70;3.90;;;;;;;-0.29;70.77;101123.28;88489;1274;97575;-77
2022/03/05 04:11:32;;;;;;;6.90;3.60;;;;;;;-0.30;70.71;101126.69;88320;1274;89222;-77
2022/03/05 04:13:43;;;;;;;5.10;3.50;;;;;;;-0.29;70.68;101124.35;88283;1274;93791;-78
2022/03/05 04:15:53;;;;;;;8.10;3.50;;;;;;;-0.28;70.73;101128.86;88286;1274;81158;-63
2022/03/05 04:18:02;;;;;;;5.40;3.50;;;;;;;-0.25;70.76;101130.38;88299;1274;83639;-63
2022/03/05 04:20:13;;;;;;;5.40;3.90;;;;;;;-0.21;70.57;101127.15;88296;1273;99318;-65
2022/03/05 04:22:22;;;;;;;6.60;3.50;;;;;;;-0.19;70.66;101127.70;88327;1274;86483;-63
2022/03/05 04:24:32;;;;;;;6.10;3.40;;;;;;;-0.14;70.60;101126.86;88278;1274;96033;-63
2022/03/05 04:26:41;;;;;;;7.30;3.70;;;;;;;-0.11;70.56;101127.84;88270;1274;77969;-65
2022/03/05 04:28:50;;;;;;;6.30;3.40;;;;;;;-0.09;70.54;101131.77;88274;1274;80413;-62
2022/03/05 04:30:59;;;;;;;6.00;3.40;;;;;;;-0.09;70.56;101133.40;88273;1273;96531;-62
2022/03/05 04:33:11;;;;;;;7.60;3.50;;;;;;;-0.08;70.52;101136.16;88310;1274;86883;-62
2022/03/05 04:35:21;;;;;;;5.40;3.20;;;;;;;-0.11;70.32;101134.02;88314;1274;94894;-63
2022/03/05 04:37:31;;;;;;;5.60;3.50;;;;;;;-0.11;70.34;101134.63;88280;1274;79035;-63
2022/03/05 04:39:40;;;;;;;6.40;3.30;;;;;;;-0.13;70.49;101131.90;88308;1273;79987;-78
2022/03/05 04:41:49;;;;;;;6.10;3.30;;;;;;;-0.15;70.29;101132.02;88301;1274;97927;-78
2022/03/05 04:44:01;;;;;;;5.80;3.70;;;;;;;-0.16;70.17;101133.69;88292;1274;87784;-77
2022/03/05 04:46:12;;;;;;;5.90;3.30;;;;;;;-0.18;70.37;101134.18;88333;1274;94824;-77
2022/03/05 04:48:21;;;;;;;5.10;3.10;;;;;;;-0.20;70.29;101135.00;88264;1274;77899;-76
2022/03/05 04:50:30;;;;;;;6.30;3.50;;;;;;;-0.21;70.24;101134.94;88333;1273;80449;-77
2022/03/05 04:52:40;;;;;;;7.00;3.60;;;;;;;-0.23;70.26;101137.73;88293;1274;97731;-79
2022/03/05 04:54:49;;;;;;;5.20;3.20;;;;;;;-0.26;70.19;101135.42;88303;1274;87723;-65
2022/03/05 04:56:58;;;;;;;6.80;3.20;;;;;;;-0.27;70.28;101141.53;88262;1274;94527;-62
2022/03/05 04:59:07;;;;;;;5.80;3.50;;;;;;;-0.28;70.34;101143.19;88288;1272;77734;-63
2022/03/05 05:01:18;;;;;;;5.50;3.60;;;;;;;-0.28;70.28;101142.33;88307;1273;82742;-78
2022/03/05 05:03:27;;;;;;;6.70;3.40;;;;;;;-0.29;70.33;101145.95;88273;1273;98478;-78
2022/03/05 05:05:36;;;;;;;6.90;3.60;;;;;;;-0.29;70.23;101148.20;88285;1274;88459;-77
2022/03/05 05:07:45;;;;;;;6.50;3.40;;;;;;;-0.27;70.51;101146.48;88259;1274;94086;-78
2022/03/05 05:09:57;;;;;;;4.90;3.20;;;;;;;-0.25;70.41;101148.51;88316;1273;79494;-65
2022/03/05 05:12:08;;;;;;;5.90;3.40;;;;;;;-0.22;70.33;101147.39;88282;1274;81865;-67
2022/03/05 05:14:18;;;;;;;5.40;3.20;;;;;;;-0.17;70.25;101147.23;88304;1274;98799;-65
2022/03/05 05:16:27;;;;;;;4.80;2.90;;;;;;;-0.15;70.38;101149.17;88287;1274;89335;-64
2022/03/05 05:18:36;;;;;;;6.60;3.40;;;;;;;-0.13;70.39;101146.26;88295;1271;94453;-64
2022/03/05 05:20:49;;;;;;;7.40;3.20;;;;;;;-0.12;70.31;101150.42;88356;1271;79390;-78
2022/03/05 05:22:58;;;;;;;4.60;2.80;;;;;;;-0.13;70.31;101154.23;88368;1271;82921;-79
2022/03/05 05:25:09;;;;;;;4.50;3.00;;;;;;;-0.14;70.30;101155.70;88333;1271;99562;-78
2022/03/05 05:27:18;;;;;;;6.30;3.00;;;;;;;-0.13;70.15;101157.58;88397;1271;88910;-78
2022/03/05 05:29:28;;;;;;;9.20;3.70;;;;;;;-0.14;70.32;101162.59;88262;1273;93859;-66
2022/03/05 05:31:37;;;;;;;5.10;3.10;;;;;;;-0.17;70.26;101160.48;88365;1270;79106;-78
2022/03/05 05:33:46;;;;;;;5.40;3.00;;;;;;;-0.19;69.97;101164.85;88360;1271;82939;-77
2022/03/05 05:35:55;;;;;;;5.70;3.40;;;;;;;-0.20;70.09;101166.89;88324;1271;99660;-65
2022/03/05 05:38:04;;;;;;;5.00;3.00;;;;;;;-0.21;69.92;101166.76;88351;1271;89304;-63
2022/03/05 05:40:17;;;;;;;5.20;3.50;;;;;;;-0.21;69.89;101174.05;88352;1270;95289;-62
2022/03/05 05:42:29;;;;;;;6.70;3.10;;;;;;;-0.22;69.87;101178.20;88285;1273;79977;-65
2022/03/05 05:44:38;;;;;;;5.70;3.40;;;;;;;-0.23;69.92;101180.37;88365;1271;80930;-76
2022/03/05 05:46:47;;;;;;;5.60;3.40;;;;;;;-0.23;70.00;101178.96;88390;1271;98286;-77
2022/03/05 05:48:58;;;;;;;7.30;3.50;;;;;;;-0.23;69.94;101179.67;88366;1270;89773;-79
2022/03/05 05:51:11;;;;;;;6.30;3.50;;;;;;;-0.23;70.19;101183.02;88367;1271;95830;-77
2022/03/05 05:53:20;;;;;;;5.90;3.80;;;;;;;-0.21;69.87;101181.65;88337;1270;78528;-77
2022/03/05 05:55:29;;;;;;;10.20;5.30;;;;;;;-0.21;69.80;101186.92;88349;1271;79621;-78
2022/03/05 05:57:38;;;;;;;7.20;3.60;;;;;;;-0.18;69.93;101182.89;88339;1271;97829;-77
2022/03/05 05:59:47;;;;;;;7.00;3.50;;;;;;;-0.13;69.74;101187.81;88354;1270;87968;-76
2022/03/05 06:01:58;;;;;;;6.50;3.30;;;;;;;-0.07;69.88;101191.33;88347;1271;95484;-78
2022/03/05 06:04:08;;;;;;;5.90;3.30;;;;;;;0.01;69.99;101188.11;88279;1271;81487;-76
2022/03/05 06:06:17;;;;;;;7.30;2.90;;;;;;;0.10;69.86;101187.37;88380;1270;81189;-63
2022/03/05 06:08:26;;;;;;;7.80;4.10;;;;;;;0.18;69.87;101192.98;88347;1270;98657;-64
2022/03/05 06:10:36;;;;;;;7.10;3.20;;;;;;;0.22;69.80;101192.38;88365;1271;89218;-64
2022/03/05 06:12:49;;;;;;;6.70;3.90;;;;;;;0.28;69.88;101197.08;88281;1273;94076;-63
2022/03/05 06:14:58;;;;;;;7.30;4.10;;;;;;;0.32;69.72;101195.36;88402;1271;77679;-77
2022/03/05 06:17:08;;;;;;;5.90;3.70;;;;;;;0.38;69.70;101196.41;88378;1270;83039;-79
2022/03/05 06:19:19;;;;;;;6.30;4.10;;;;;;;0.40;69.72;101193.05;88377;1270;97991;-79
2022/03/05 06:21:28;;;;;;;5.50;3.20;;;;;;;0.40;69.47;101198.04;88389;1271;87120;-78
2022/03/05 06:23:38;;;;;;;6.10;3.40;;;;;;;0.41;69.51;101199.88;88395;1271;94005;-79
2022/03/05 06:25:47;;;;;;;5.80;3.40;;;;;;;0.43;69.30;101203.27;88332;1270;77372;-78
2022/03/05 06:27:57;;;;;;;5.90;3.60;;;;;;;0.43;69.24;101204.02;88324;1271;79690;-78
2022/03/05 06:30:12;;;;;;;6.50;3.20;;;;;;;0.45;69.19;101208.48;88301;1273;97891;-63
2022/03/05 06:32:21;;;;;;;6.70;3.90;;;;;;;0.47;69.21;101209.23;88306;1273;87945;-63
2022/03/05 06:34:31;;;;;;;5.80;3.50;;;;;;;0.49;69.22;101209.45;88298;1272;94981;-63
2022/03/05 06:36:44;;;;;;;6.90;3.70;;;;;;;0.50;69.17;101211.63;88298;1273;77314;-62
2022/03/05 06:38:53;;;;;;;5.60;3.60;;;;;;;0.51;68.78;101209.30;88262;1273;83054;-62
2022/03/05 06:41:03;;;;;;;7.80;3.80;;;;;;;0.51;68.96;101213.21;88312;1273;97403;-77
2022/03/05 06:43:12;;;;;;;5.40;4.20;;;;;;;0.54;68.98;101216.31;88297;1274;89754;-78
2022/03/05 06:45:26;;;;;;;5.90;3.90;;;;;;;0.57;68.98;101214.92;88314;1273;95867;-63
2022/03/05 06:47:36;;;;;;;6.70;3.50;;;;;;;0.61;68.91;101216.20;88322;1273;77097;-63
2022/03/05 06:49:49;;;;;;;7.30;4.00;;;;;;;0.67;68.96;101217.09;88313;1274;82891;-78
2022/03/05 06:51:59;;;;;;;8.20;4.00;;;;;;;0.71;68.79;101218.38;88298;1273;98421;-77
2022/03/05 06:54:10;;;;;;;9.40;3.70;;;;;;;0.74;68.82;101221.37;88279;1273;88224;-77
2022/03/05 06:56:21;;;;;;;5.70;3.60;;;;;;;0.76;68.79;101225.66;88344;1270;95153;-63
2022/03/05 06:58:31;;;;;;;6.50;3.50;;;;;;;0.78;68.66;101227.83;88368;1271;78936;-63
2022/03/05 07:00:44;;;;;;;7.00;4.00;;;;;;;0.81;68.54;101228.66;88247;1273;84098;-77
2022/03/05 07:02:54;;;;;;;7.50;3.80;;;;;;;0.85;68.49;101229.25;88357;1270;97693;-78
2022/03/05 07:05:07;;;;;;;7.40;4.70;;;;;;;0.88;68.60;101229.23;88379;1271;88263;-64
2022/03/05 07:07:17;;;;;;;6.30;3.70;;;;;;;0.94;68.46;101229.81;88327;1271;95788;-63
2022/03/05 07:09:27;;;;;;;7.40;4.20;;;;;;;1.01;68.47;101229.20;88337;1271;79232;-63
2022/03/05 07:11:37;;;;;;;6.60;3.90;;;;;;;1.07;68.19;101229.45;88367;1271;79792;-64
2022/03/05 07:13:47;;;;;;;6.30;3.70;;;;;;;1.12;68.12;101229.45;88359;1270;98854;-63
2022/03/05 07:15:56;;;;;;;6.90;4.20;;;;;;;1.19;68.19;101231.08;88380;1270;88404;-78
2022/03/05 07:18:09;;;;;;;6.10;3.70;;;;;;;1.24;68.20;101232.33;88375;1270;94639;-77
2022/03/05 07:20:22;;;;;;;5.90;4.00;;;;;;;1.29;67.95;101230.58;88397;1271;77941;-63
2022/03/05 07:22:35;;;;;;;6.80;4.20;;;;;;;1.33;67.86;101232.73;88350;1271;81546;-63
2022/03/05 07:24:44;;;;;;;6.60;3.70;;;;;;;1.33;67.69;101234.52;88292;1274;97308;-75
2022/03/05 07:26:53;;;;;;;6.30;3.40;;;;;;;1.37;67.19;101234.95;88342;1271;89010;-75
2022/03/05 07:29:03;;;;;;;7.00;3.90;;;;;;;1.37;67.17;101236.56;88287;1274;96112;-76
2022/03/05 07:31:12;;;;;;;6.20;3.80;;;;;;;1.44;67.27;101238.10;88345;1273;76560;-62
2022/03/05 07:33:21;;;;;;;6.20;3.90;;;;;;;1.51;67.18;101243.09;88294;1273;83184;-62
2022/03/05 07:35:37;;;;;;;5.60;3.70;;;;;;;1.59;67.00;101245.38;88279;1273;98818;-63
2022/03/05 07:37:47;;;;;;;6.30;3.90;;;;;;;1.64;66.75;101245.55;88307;1273;87723;-63
2022/03/05 07:39:59;;;;;;;6.10;4.50;;;;;;;1.69;66.79;101242.66;88312;1273;95103;-77
2022/03/05 07:42:10;;;;;;;6.80;3.80;;;;;;;1.74;66.71;101244.61;88311;1273;76895;-78
2022/03/05 07:44:19;;;;;;;6.50;4.20;;;;;;;1.81;66.61;101248.05;88301;1273;83346;-78
2022/03/05 07:46:29;;;;;;;8.70;4.90;;;;;;;1.87;66.54;101246.49;88286;1273;99278;-63
2022/03/05 07:48:38;;;;;;;10.50;7.40;;;;;;;1.91;66.26;101248.36;88265;1273;89686;-63
2022/03/05 07:50:49;;;;;;;10.00;6.50;;;;;;;1.92;66.12;101248.12;88337;1273;93792;-63
2022/03/05 07:52:58;;;;;;;10.80;6.80;;;;;;;1.94;65.47;101251.33;88276;1272;79448;-63
2022/03/05 07:55:09;;;;;;;12.80;8.10;;;;;;;1.99;65.60;101250.77;88321;1273;81312;-77
2022/03/05 07:57:19;;;;;;;6.00;4.00;;;;;;;2.05;65.48;101251.33;88321;1272;99355;-77
2022/03/05 07:59:27;;;;;;;11.00;6.70;;;;;;;2.13;65.45;101247.04;88373;1273;87192;-65
2022/03/05 08:01:39;;;;;;;9.50;4.30;;;;;;;2.23;65.51;101246.98;88282;1273;93871;-64
2022/03/05 08:03:48;;;;;;;6.50;4.20;;;;;;;2.34;65.46;101247.36;88313;1273;77260;-64
2022/03/05 08:05:58;;;;;;;10.10;4.30;;;;;;;2.41;65.28;101244.92;88340;1273;81429;-77
2022/03/05 08:08:11;;;;;;;6.20;4.20;;;;;;;2.54;65.07;101240.52;88319;1273;99479;-78
2022/03/05 08:10:23;;;;;;;8.10;4.40;;;;;;;2.70;65.13;101244.79;88327;1273;88167;-78
2022/03/05 08:12:33;;;;;;;9.80;5.70;;;;;;;2.81;64.96;101244.05;88312;1273;95250;-78
2022/03/05 08:14:44;;;;;;;13.60;7.60;;;;;;;2.85;64.72;101244.32;88274;1273;77597;-64
2022/03/05 08:16:57;;;;;;;11.10;5.40;;;;;;;3.03;64.73;101246.11;88281;1273;82481;-62
2022/03/05 08:19:06;;;;;;;10.60;5.70;;;;;;;3.21;63.80;101251.95;88259;1273;99867;-63
2022/03/05 08:21:16;;;;;;;12.90;7.50;;;;;;;3.18;63.37;101252.02;88346;1273;89299;-74
2022/03/05 08:23:26;;;;;;;14.70;7.50;;;;;;;3.13;63.39;101250.46;88328;1273;94769;-76
2022/03/05 08:25:39;;;;;;;9.70;5.40;;;;;;;3.21;63.19;101251.63;88344;1273;80601;-64
2022/03/05 08:27:49;;;;;;;7.70;5.60;;;;;;;3.24;63.17;101255.39;88283;1271;80303;-62
2022/03/05 08:29:59;;;;;;;6.60;4.60;;;;;;;3.32;63.22;101251.27;88327;1273;99921;-79
2022/03/05 08:32:12;;;;;;;6.60;5.30;;;;;;;3.36;63.13;101252.70;88319;1273;88787;-78
2022/03/05 08:34:21;;;;;;;7.30;4.10;;;;;;;3.46;62.58;101256.80;88334;1273;94211;-77
2022/03/05 08:36:32;;;;;;;8.60;5.10;;;;;;;3.38;62.32;101253.02;88287;1273;77110;-78
2022/03/05 08:38:41;;;;;;;7.40;5.10;;;;;;;3.40;62.27;101256.44;88311;1273;82814;-80
2022/03/05 08:40:50;;;;;;;10.20;4.50;;;;;;;3.39;62.08;101253.67;88296;1273;100230;-63
2022/03/05 08:43:01;;;;;;;9.00;4.60;;;;;;;3.45;62.12;101264.59;88287;1273;88759;-64
2022/03/05 08:45:13;;;;;;;20.00;9.80;;;;;;;3.42;61.76;101262.56;88319;1273;94736;-78
2022/03/05 08:47:22;;;;;;;12.60;6.90;;;;;;;3.45;61.53;101270.82;88295;1273;77172;-77
2022/03/05 08:49:35;;;;;;;15.00;7.50;;;;;;;3.46;61.24;101266.84;88350;1273;81310;-64
2022/03/05 08:51:48;;;;;;;16.90;10.20;;;;;;;3.51;60.92;101266.42;88318;1273;99756;-64
2022/03/05 08:53:57;;;;;;;6.10;3.90;;;;;;;3.59;61.33;101268.77;88312;1273;89383;-64
2022/03/05 08:56:07;;;;;;;5.90;3.70;;;;;;;3.75;61.05;101268.42;88274;1273;95665;-63
2022/03/05 08:58:17;;;;;;;7.20;4.10;;;;;;;3.81;60.78;101269.70;88305;1273;77226;-63
2022/03/05 09:00:27;;;;;;;5.20;3.50;;;;;;;3.85;60.54;101270.61;88320;1271;80982;-65
2022/03/05 09:02:38;;;;;;;3.90;2.80;;;;;;;3.90;60.52;101271.38;88311;1273;98311;-63
2022/03/05 09:04:49;;;;;;;7.30;4.10;;;;;;;3.96;60.41;101270.39;88326;1273;87709;-63
2022/03/05 09:06:59;;;;;;;17.20;7.40;;;;;;;4.02;60.06;101273.96;88281;1273;95095;-64
2022/03/05 09:09:09;;;;;;;8.30;4.00;;;;;;;3.97;58.83;101274.02;88279;1273;78110;-64
2022/03/05 09:11:18;;;;;;;12.60;5.80;;;;;;;3.87;58.53;101273.48;88332;1273;81166;-64
2022/03/05 09:13:27;;;;;;;24.30;9.80;;;;;;;3.79;58.41;101273.05;88287;1273;100284;-62
2022/03/05 09:15:40;;;;;;;32.00;12.80;;;;;;;3.80;58.07;101276.30;88304;1273;89134;-62
2022/03/05 09:17:53;;;;;;;12.50;5.40;;;;;;;3.80;58.19;101277.28;88320;1273;94439;-63
2022/03/05 09:20:04;;;;;;;23.00;9.70;;;;;;;3.81;58.09;101274.84;88295;1273;76610;-79
2022/03/05 09:22:14;;;;;;;10.90;5.30;;;;;;;3.82;58.35;101275.88;88334;1273;82444;-74
2022/03/05 09:24:24;;;;;;;8.30;4.60;;;;;;;3.82;58.11;101277.93;88323;1273;99973;-75
2022/03/05 09:26:35;;;;;;;19.80;9.20;;;;;;;3.83;57.66;101275.06;88318;1273;88614;-66
2022/03/05 09:28:50;;;;;;;38.80;15.80;;;;;;;3.83;58.05;101274.54;88332;1273;95135;-75
2022/03/05 09:31:00;;;;;;;14.00;6.40;;;;;;;3.92;57.66;101278.04;88336;1273;78854;-76
2022/03/05 09:33:12;;;;;;;9.90;4.90;;;;;;;3.92;57.37;101279.12;88345;1273;84749;-78
2022/03/05 09:35:22;;;;;;;8.10;4.90;;;;;;;3.97;57.61;101277.41;88301;1273;99436;-79
2022/03/05 09:37:34;;;;;;;13.30;6.20;;;;;;;4.05;57.65;101279.94;88320;1273;88333;-80
2022/03/05 09:39:46;;;;;;;18.50;7.90;;;;;;;4.03;57.34;101282.30;88332;1273;94577;-81
2022/03/05 09:42:01;;;;;;;22.00;10.20;;;;;;;3.99;57.13;101281.02;88343;1273;77655;-75
2022/03/05 09:44:13;;;;;;;17.80;10.60;;;;;;;3.93;56.98;101286.49;88319;1272;81969;-64
2022/03/05 09:46:26;;;;;;;18.10;11.70;;;;;;;3.73;56.88;101285.50;88342;1273;99158;-64
2022/03/05 09:48:38;;;;;;;13.70;9.00;;;;;;;3.68;56.85;101288.92;88315;1273;89049;-63
2022/03/05 09:50:48;;;;;;;5.80;4.80;;;;;;;3.60;56.84;101285.98;88317;1273;95004;-78
2022/03/05 09:52:58;;;;;;;3.80;2.70;;;;;;;3.58;56.99;101288.83;88342;1273;79268;-78
2022/03/05 09:55:13;;;;;;;6.20;3.10;;;;;;;3.55;56.87;101290.69;88336;1273;83747;-65
2022/03/05 09:57:24;;;;;;;5.40;3.10;;;;;;;3.46;56.88;101293.35;88294;1272;100317;-63
2022/03/05 09:59:38;;;;;;;4.90;2.60;;;;;;;3.41;56.87;101296.27;88308;1273;87841;-78
2022/03/05 10:01:49;;;;;;;4.90;3.10;;;;;;;3.31;57.18;101297.81;88361;1273;94447;-77
2022/03/05 10:04:02;;;;;;;9.00;3.20;;;;;;;3.22;56.90;101302.75;88351;1272;78807;-76
2022/03/05 10:06:24;;;;;;;5.20;3.30;;;;;;;3.17;56.87;101303.20;88405;1273;80789;-75
2022/03/05 10:08:38;;;;;;;6.40;3.00;;;;;;;3.12;57.00;101303.91;88383;1273;99590;-74
2022/03/05 10:10:59;;;;;;;3.40;2.50;;;;;;;3.03;56.83;101308.20;88361;1273;89538;-67